sensor_id;sensor_type;location;lat;lon;timestamp;P1;durP1;ratioP1;P2;durP2;ratioP2
13408;SDS011;6775;49.574;11.170;2022-09-30T00:01:47;5.17;;;4.43;;
13408;SDS011;6775;49.574;11.170;2022-09-30T00:04:17;4.40;;;3.90;;
13408;SDS011;6775;49.574;11.170;2022-09-30T00:06:47;5.33;;;4.20;;
13408;SDS011;6775;49.574;11.170;2022-09-30T00:09:17;7.63;;;4.60;;
13408;SDS011;6775;49.574;11.170;2022-09-30T00:11:45;5.13;;;4.40;;
13408;SDS011;6775;49.574;11.170;2022-09-30T00:14:14;4.40;;;3.77;;
13408;SDS011;6775;49.574;11.170;2022-09-30T00:16:44;7.80;;;4.37;;
13408;SDS011;6775;49.574;11.170;2022-09-30T00:19:13;5.97;;;4.50;;
13408;SDS011;6775;49.574;11.170;2022-09-30T00:21:42;7.70;;;4.67;;
13408;SDS011;6775;49.574;11.170;2022-09-30T00:24:11;6.00;;;4.53;;
13408;SDS011;6775;49.574;11.170;2022-09-30T00:26:39;5.73;;;4.37;;
13408;SDS011;6775;49.574;11.170;2022-09-30T00:29:08;5.20;;;4.27;;
13408;SDS011;6775;49.574;11.170;2022-09-30T00:31:36;4.83;;;4.30;;
13408;SDS011;6775;49.574;11.170;2022-09-30T00:34:05;6.27;;;4.73;;
13408;SDS011;6775;49.574;11.170;2022-09-30T00:36:34;5.87;;;4.77;;
13408;SDS011;6775;49.574;11.170;2022-09-30T00:39:05;4.80;;;4.30;;
13408;SDS011;6775;49.574;11.170;2022-09-30T00:41:35;5.63;;;4.60;;
13408;SDS011;6775;49.574;11.170;2022-09-30T00:47:12;6.83;;;4.23;;
13408;SDS011;6775;49.574;11.170;2022-09-30T00:50:02;5.70;;;3.87;;
13408;SDS011;6775;49.574;11.170;2022-09-30T00:52:37;4.40;;;3.70;;
13408;SDS011;6775;49.574;11.170;2022-09-30T00:55:08;4.00;;;3.10;;
13408;SDS011;6775;49.574;11.170;2022-09-30T00:57:46;5.93;;;3.27;;
13408;SDS011;6775;49.574;11.170;2022-09-30T01:00:14;3.87;;;3.27;;
13408;SDS011;6775;49.574;11.170;2022-09-30T01:02:42;4.33;;;3.60;;
13408;SDS011;6775;49.574;11.170;2022-09-30T01:05:12;4.40;;;3.00;;
13408;SDS011;6775;49.574;11.170;2022-09-30T01:07:40;3.30;;;3.00;;
13408;SDS011;6775;49.574;11.170;2022-09-30T01:10:10;3.67;;;3.20;;
13408;SDS011;6775;49.574;11.170;2022-09-30T01:12:37;3.40;;;3.10;;
13408;SDS011;6775;49.574;11.170;2022-09-30T01:15:06;4.53;;;2.90;;
13408;SDS011;6775;49.574;11.170;2022-09-30T01:17:35;3.87;;;2.70;;
13408;SDS011;6775;49.574;11.170;2022-09-30T01:20:19;3.80;;;3.03;;
13408;SDS011;6775;49.574;11.170;2022-09-30T01:23:05;3.37;;;2.90;;
13408;SDS011;6775;49.574;11.170;2022-09-30T01:25:49;3.10;;;2.70;;
13408;SDS011;6775;49.574;11.170;2022-09-30T01:31:30;3.93;;;2.97;;
13408;SDS011;6775;49.574;11.170;2022-09-30T01:34:13;3.60;;;3.30;;
13408;SDS011;6775;49.574;11.170;2022-09-30T01:36:51;3.73;;;3.00;;
13408;SDS011;6775;49.574;11.170;2022-09-30T01:39:35;3.17;;;2.60;;
13408;SDS011;6775;49.574;11.170;2022-09-30T01:42:09;3.23;;;2.83;;
13408;SDS011;6775;49.574;11.170;2022-09-30T01:44:46;5.33;;;2.97;;
13408;SDS011;6775;49.574;11.170;2022-09-30T01:47:21;3.53;;;2.70;;
13408;SDS011;6775;49.574;11.170;2022-09-30T01:49:53;3.50;;;2.57;;
13408;SDS011;6775;49.574;11.170;2022-09-30T01:52:29;3.20;;;2.60;;
13408;SDS011;6775;49.574;11.170;2022-09-30T01:55:05;4.77;;;2.60;;
13408;SDS011;6775;49.574;11.170;2022-09-30T01:57:38;3.27;;;2.17;;
13408;SDS011;6775;49.574;11.170;2022-09-30T02:00:14;5.50;;;2.80;;
13408;SDS011;6775;49.574;11.170;2022-09-30T02:02:45;3.10;;;2.50;;
13408;SDS011;6775;49.574;11.170;2022-09-30T02:05:18;3.40;;;2.80;;
13408;SDS011;6775;49.574;11.170;2022-09-30T02:07:50;3.97;;;2.97;;
13408;SDS011;6775;49.574;11.170;2022-09-30T02:10:24;3.10;;;2.40;;
13408;SDS011;6775;49.574;11.170;2022-09-30T02:12:55;3.20;;;2.57;;
13408;SDS011;6775;49.574;11.170;2022-09-30T02:15:27;3.40;;;2.50;;
13408;SDS011;6775;49.574;11.170;2022-09-30T02:18:09;2.97;;;2.30;;
13408;SDS011;6775;49.574;11.170;2022-09-30T02:20:42;4.43;;;2.80;;
13408;SDS011;6775;49.574;11.170;2022-09-30T02:23:11;3.93;;;2.30;;
13408;SDS011;6775;49.574;11.170;2022-09-30T02:25:43;2.70;;;2.40;;
13408;SDS011;6775;49.574;11.170;2022-09-30T02:28:17;4.00;;;2.47;;
13408;SDS011;6775;49.574;11.170;2022-09-30T02:30:52;4.27;;;2.73;;
13408;SDS011;6775;49.574;11.170;2022-09-30T02:33:26;3.60;;;2.70;;
13408;SDS011;6775;49.574;11.170;2022-09-30T02:35:59;2.80;;;2.57;;
13408;SDS011;6775;49.574;11.170;2022-09-30T02:38:32;3.37;;;2.40;;
13408;SDS011;6775;49.574;11.170;2022-09-30T02:41:07;3.47;;;2.57;;
13408;SDS011;6775;49.574;11.170;2022-09-30T02:43:37;2.63;;;2.43;;
13408;SDS011;6775;49.574;11.170;2022-09-30T02:46:07;4.00;;;3.10;;
13408;SDS011;6775;49.574;11.170;2022-09-30T02:48:44;3.13;;;2.50;;
13408;SDS011;6775;49.574;11.170;2022-09-30T02:51:16;2.53;;;2.27;;
13408;SDS011;6775;49.574;11.170;2022-09-30T02:53:50;3.37;;;2.50;;
13408;SDS011;6775;49.574;11.170;2022-09-30T02:56:23;3.43;;;2.67;;
13408;SDS011;6775;49.574;11.170;2022-09-30T02:59:00;4.60;;;2.60;;
13408;SDS011;6775;49.574;11.170;2022-09-30T03:01:27;2.50;;;2.30;;
13408;SDS011;6775;49.574;11.170;2022-09-30T03:03:58;2.60;;;2.20;;
13408;SDS011;6775;49.574;11.170;2022-09-30T03:06:29;2.80;;;2.40;;
13408;SDS011;6775;49.574;11.170;2022-09-30T03:08:58;2.47;;;2.10;;
13408;SDS011;6775;49.574;11.170;2022-09-30T03:11:27;2.50;;;2.00;;
13408;SDS011;6775;49.574;11.170;2022-09-30T03:17:05;2.40;;;2.20;;
13408;SDS011;6775;49.574;11.170;2022-09-30T03:19:52;2.93;;;2.50;;
13408;SDS011;6775;49.574;11.170;2022-09-30T03:22:45;2.70;;;2.50;;
13408;SDS011;6775;49.574;11.170;2022-09-30T03:25:26;3.80;;;2.50;;
13408;SDS011;6775;49.574;11.170;2022-09-30T03:28:03;2.40;;;2.17;;
13408;SDS011;6775;49.574;11.170;2022-09-30T03:30:43;2.37;;;2.10;;
13408;SDS011;6775;49.574;11.170;2022-09-30T03:33:19;3.50;;;2.20;;
13408;SDS011;6775;49.574;11.170;2022-09-30T03:35:55;2.87;;;2.40;;
13408;SDS011;6775;49.574;11.170;2022-09-30T03:38:31;2.30;;;2.10;;
13408;SDS011;6775;49.574;11.170;2022-09-30T03:41:07;2.43;;;2.23;;
13408;SDS011;6775;49.574;11.170;2022-09-30T03:43:43;2.67;;;2.43;;
13408;SDS011;6775;49.574;11.170;2022-09-30T03:46:15;2.60;;;2.30;;
13408;SDS011;6775;49.574;11.170;2022-09-30T03:48:50;2.80;;;2.60;;
13408;SDS011;6775;49.574;11.170;2022-09-30T03:51:23;3.67;;;2.90;;
13408;SDS011;6775;49.574;11.170;2022-09-30T03:53:51;3.70;;;2.70;;
13408;SDS011;6775;49.574;11.170;2022-09-30T03:56:24;3.63;;;2.73;;
13408;SDS011;6775;49.574;11.170;2022-09-30T03:58:52;3.57;;;2.80;;
13408;SDS011;6775;49.574;11.170;2022-09-30T04:01:20;3.33;;;2.63;;
13408;SDS011;6775;49.574;11.170;2022-09-30T04:03:49;3.17;;;2.60;;
13408;SDS011;6775;49.574;11.170;2022-09-30T04:06:18;4.20;;;3.17;;
13408;SDS011;6775;49.574;11.170;2022-09-30T04:08:48;4.10;;;3.00;;
13408;SDS011;6775;49.574;11.170;2022-09-30T04:11:19;4.00;;;2.93;;
13408;SDS011;6775;49.574;11.170;2022-09-30T04:13:46;3.70;;;3.10;;
13408;SDS011;6775;49.574;11.170;2022-09-30T04:16:14;3.73;;;3.13;;
13408;SDS011;6775;49.574;11.170;2022-09-30T04:18:42;5.40;;;3.20;;
13408;SDS011;6775;49.574;11.170;2022-09-30T04:21:11;3.80;;;2.90;;
13408;SDS011;6775;49.574;11.170;2022-09-30T04:23:40;4.83;;;3.33;;
13408;SDS011;6775;49.574;11.170;2022-09-30T04:26:11;4.20;;;3.17;;
13408;SDS011;6775;49.574;11.170;2022-09-30T04:28:40;7.50;;;3.70;;
13408;SDS011;6775;49.574;11.170;2022-09-30T04:31:09;5.97;;;3.73;;
13408;SDS011;6775;49.574;11.170;2022-09-30T04:33:38;5.33;;;3.40;;
13408;SDS011;6775;49.574;11.170;2022-09-30T04:36:06;3.70;;;3.03;;
13408;SDS011;6775;49.574;11.170;2022-09-30T04:38:34;4.07;;;3.07;;
13408;SDS011;6775;49.574;11.170;2022-09-30T04:41:02;3.30;;;3.00;;
13408;SDS011;6775;49.574;11.170;2022-09-30T04:43:34;3.33;;;2.83;;
13408;SDS011;6775;49.574;11.170;2022-09-30T04:46:02;3.87;;;2.93;;
13408;SDS011;6775;49.574;11.170;2022-09-30T04:48:30;3.73;;;2.90;;
13408;SDS011;6775;49.574;11.170;2022-09-30T04:50:58;3.07;;;2.77;;
13408;SDS011;6775;49.574;11.170;2022-09-30T04:53:26;3.10;;;2.60;;
13408;SDS011;6775;49.574;11.170;2022-09-30T04:55:57;3.50;;;2.63;;
13408;SDS011;6775;49.574;11.170;2022-09-30T04:58:26;4.50;;;2.67;;
13408;SDS011;6775;49.574;11.170;2022-09-30T05:01:01;3.33;;;2.73;;
13408;SDS011;6775;49.574;11.170;2022-09-30T05:03:30;2.90;;;2.50;;
13408;SDS011;6775;49.574;11.170;2022-09-30T05:05:58;3.60;;;2.60;;
13408;SDS011;6775;49.574;11.170;2022-09-30T05:08:26;2.60;;;2.30;;
13408;SDS011;6775;49.574;11.170;2022-09-30T05:10:54;4.23;;;2.90;;
13408;SDS011;6775;49.574;11.170;2022-09-30T05:13:23;2.70;;;2.50;;
13408;SDS011;6775;49.574;11.170;2022-09-30T05:15:51;2.60;;;2.40;;
13408;SDS011;6775;49.574;11.170;2022-09-30T05:18:20;3.80;;;3.07;;
13408;SDS011;6775;49.574;11.170;2022-09-30T05:20:51;3.23;;;2.93;;
13408;SDS011;6775;49.574;11.170;2022-09-30T05:23:20;3.97;;;3.07;;
13408;SDS011;6775;49.574;11.170;2022-09-30T05:25:48;2.70;;;2.50;;
13408;SDS011;6775;49.574;11.170;2022-09-30T05:28:17;3.50;;;3.07;;
13408;SDS011;6775;49.574;11.170;2022-09-30T05:30:45;3.87;;;2.90;;
13408;SDS011;6775;49.574;11.170;2022-09-30T05:33:15;3.23;;;2.93;;
13408;SDS011;6775;49.574;11.170;2022-09-30T05:35:44;3.03;;;2.43;;
13408;SDS011;6775;49.574;11.170;2022-09-30T05:38:12;2.67;;;2.43;;
13408;SDS011;6775;49.574;11.170;2022-09-30T05:40:40;5.40;;;3.23;;
13408;SDS011;6775;49.574;11.170;2022-09-30T05:43:08;3.40;;;3.10;;
13408;SDS011;6775;49.574;11.170;2022-09-30T05:45:36;3.17;;;2.87;;
13408;SDS011;6775;49.574;11.170;2022-09-30T05:48:04;3.77;;;3.27;;
13408;SDS011;6775;49.574;11.170;2022-09-30T05:50:33;3.80;;;3.20;;
13408;SDS011;6775;49.574;11.170;2022-09-30T05:53:02;3.27;;;2.80;;
13408;SDS011;6775;49.574;11.170;2022-09-30T05:55:30;2.90;;;2.70;;
13408;SDS011;6775;49.574;11.170;2022-09-30T05:58:04;2.53;;;2.33;;
13408;SDS011;6775;49.574;11.170;2022-09-30T06:00:31;3.33;;;2.73;;
13408;SDS011;6775;49.574;11.170;2022-09-30T06:02:59;2.83;;;2.30;;
13408;SDS011;6775;49.574;11.170;2022-09-30T06:05:27;3.60;;;3.17;;
13408;SDS011;6775;49.574;11.170;2022-09-30T06:07:55;3.47;;;3.17;;
13408;SDS011;6775;49.574;11.170;2022-09-30T06:10:24;3.03;;;2.73;;
13408;SDS011;6775;49.574;11.170;2022-09-30T06:12:52;3.70;;;3.10;;
13408;SDS011;6775;49.574;11.170;2022-09-30T06:15:19;3.30;;;3.00;;
13408;SDS011;6775;49.574;11.170;2022-09-30T06:17:50;3.10;;;2.70;;
13408;SDS011;6775;49.574;11.170;2022-09-30T06:20:18;2.80;;;2.60;;
13408;SDS011;6775;49.574;11.170;2022-09-30T06:22:46;2.67;;;2.47;;
13408;SDS011;6775;49.574;11.170;2022-09-30T06:25:14;2.17;;;1.97;;
13408;SDS011;6775;49.574;11.170;2022-09-30T06:27:44;2.70;;;2.50;;
13408;SDS011;6775;49.574;11.170;2022-09-30T06:30:12;2.93;;;2.10;;
13408;SDS011;6775;49.574;11.170;2022-09-30T06:32:40;2.73;;;2.17;;
13408;SDS011;6775;49.574;11.170;2022-09-30T06:35:09;3.10;;;2.80;;
13408;SDS011;6775;49.574;11.170;2022-09-30T06:37:37;2.20;;;2.00;;
13408;SDS011;6775;49.574;11.170;2022-09-30T06:40:05;2.60;;;2.40;;
13408;SDS011;6775;49.574;11.170;2022-09-30T06:42:33;2.83;;;2.63;;
13408;SDS011;6775;49.574;11.170;2022-09-30T06:45:03;3.27;;;2.73;;
13408;SDS011;6775;49.574;11.170;2022-09-30T06:47:31;3.47;;;2.50;;
13408;SDS011;6775;49.574;11.170;2022-09-30T06:49:59;2.73;;;2.53;;
13408;SDS011;6775;49.574;11.170;2022-09-30T06:52:28;2.50;;;2.30;;
13408;SDS011;6775;49.574;11.170;2022-09-30T06:54:55;2.77;;;2.53;;
13408;SDS011;6775;49.574;11.170;2022-09-30T06:57:23;2.80;;;2.60;;
13408;SDS011;6775;49.574;11.170;2022-09-30T06:59:52;2.60;;;2.40;;
13408;SDS011;6775;49.574;11.170;2022-09-30T07:02:22;2.60;;;2.40;;
13408;SDS011;6775;49.574;11.170;2022-09-30T07:04:50;2.87;;;2.67;;
13408;SDS011;6775;49.574;11.170;2022-09-30T07:07:18;2.60;;;2.40;;
13408;SDS011;6775;49.574;11.170;2022-09-30T07:09:47;2.30;;;2.10;;
13408;SDS011;6775;49.574;11.170;2022-09-30T07:12:15;2.07;;;1.87;;
13408;SDS011;6775;49.574;11.170;2022-09-30T07:14:43;3.90;;;2.70;;
13408;SDS011;6775;49.574;11.170;2022-09-30T07:17:11;2.50;;;2.30;;
13408;SDS011;6775;49.574;11.170;2022-09-30T07:19:40;2.90;;;2.70;;
13408;SDS011;6775;49.574;11.170;2022-09-30T07:22:08;4.17;;;2.63;;
13408;SDS011;6775;49.574;11.170;2022-09-30T07:24:55;4.37;;;3.97;;
13408;SDS011;6775;49.574;11.170;2022-09-30T07:27:24;3.97;;;3.57;;
13408;SDS011;6775;49.574;11.170;2022-09-30T07:29:53;3.70;;;3.00;;
13408;SDS011;6775;49.574;11.170;2022-09-30T07:32:36;4.90;;;3.80;;
13408;SDS011;6775;49.574;11.170;2022-09-30T07:35:06;7.07;;;5.33;;
13408;SDS011;6775;49.574;11.170;2022-09-30T07:37:34;30.33;;;15.90;;
13408;SDS011;6775;49.574;11.170;2022-09-30T07:40:02;12.73;;;7.73;;
13408;SDS011;6775;49.574;11.170;2022-09-30T07:42:32;11.10;;;7.30;;
13408;SDS011;6775;49.574;11.170;2022-09-30T07:45:03;7.73;;;6.00;;
13408;SDS011;6775;49.574;11.170;2022-09-30T07:47:31;5.90;;;5.00;;
13408;SDS011;6775;49.574;11.170;2022-09-30T07:50:07;4.23;;;3.80;;
13408;SDS011;6775;49.574;11.170;2022-09-30T07:52:35;3.40;;;3.10;;
13408;SDS011;6775;49.574;11.170;2022-09-30T07:55:04;4.17;;;3.67;;
13408;SDS011;6775;49.574;11.170;2022-09-30T07:57:32;4.00;;;3.60;;
13408;SDS011;6775;49.574;11.170;2022-09-30T07:59:59;3.53;;;3.23;;
13408;SDS011;6775;49.574;11.170;2022-09-30T08:02:47;3.17;;;2.87;;
13408;SDS011;6775;49.574;11.170;2022-09-30T08:05:16;3.00;;;2.80;;
13408;SDS011;6775;49.574;11.170;2022-09-30T08:07:44;3.00;;;2.63;;
13408;SDS011;6775;49.574;11.170;2022-09-30T08:10:12;2.50;;;2.30;;
13408;SDS011;6775;49.574;11.170;2022-09-30T08:12:40;2.77;;;2.30;;
13408;SDS011;6775;49.574;11.170;2022-09-30T08:15:08;2.40;;;2.20;;
13408;SDS011;6775;49.574;11.170;2022-09-30T08:17:36;2.10;;;1.90;;
13408;SDS011;6775;49.574;11.170;2022-09-30T08:20:05;2.67;;;2.37;;
13408;SDS011;6775;49.574;11.170;2022-09-30T08:22:40;3.03;;;2.57;;
13408;SDS011;6775;49.574;11.170;2022-09-30T08:25:08;2.87;;;2.03;;
13408;SDS011;6775;49.574;11.170;2022-09-30T08:27:36;2.40;;;2.20;;
13408;SDS011;6775;49.574;11.170;2022-09-30T08:30:04;2.10;;;2.00;;
13408;SDS011;6775;49.574;11.170;2022-09-30T08:32:32;2.23;;;2.03;;
13408;SDS011;6775;49.574;11.170;2022-09-30T08:35:00;2.80;;;2.40;;
13408;SDS011;6775;49.574;11.170;2022-09-30T08:37:28;3.30;;;2.67;;
13408;SDS011;6775;49.574;11.170;2022-09-30T08:39:57;3.33;;;2.50;;
13408;SDS011;6775;49.574;11.170;2022-09-30T08:42:28;3.07;;;2.40;;
13408;SDS011;6775;49.574;11.170;2022-09-30T08:45:20;4.17;;;2.77;;
13408;SDS011;6775;49.574;11.170;2022-09-30T08:47:55;2.73;;;2.53;;
13408;SDS011;6775;49.574;11.170;2022-09-30T08:50:33;2.50;;;2.30;;
13408;SDS011;6775;49.574;11.170;2022-09-30T08:53:09;3.73;;;3.20;;
13408;SDS011;6775;49.574;11.170;2022-09-30T08:55:42;3.17;;;2.87;;
13408;SDS011;6775;49.574;11.170;2022-09-30T08:58:14;3.00;;;2.57;;
13408;SDS011;6775;49.574;11.170;2022-09-30T09:00:49;2.30;;;2.10;;
13408;SDS011;6775;49.574;11.170;2022-09-30T09:03:21;2.60;;;1.93;;
13408;SDS011;6775;49.574;11.170;2022-09-30T09:05:55;1.90;;;1.80;;
13408;SDS011;6775;49.574;11.170;2022-09-30T09:08:40;1.63;;;1.53;;
13408;SDS011;6775;49.574;11.170;2022-09-30T09:11:26;2.10;;;1.90;;
13408;SDS011;6775;49.574;11.170;2022-09-30T09:14:10;2.00;;;1.80;;
13408;SDS011;6775;49.574;11.170;2022-09-30T09:16:54;2.13;;;2.03;;
13408;SDS011;6775;49.574;11.170;2022-09-30T09:19:35;1.80;;;1.70;;
13408;SDS011;6775;49.574;11.170;2022-09-30T09:22:06;2.13;;;1.77;;
13408;SDS011;6775;49.574;11.170;2022-09-30T09:24:37;3.60;;;2.07;;
13408;SDS011;6775;49.574;11.170;2022-09-30T09:27:17;1.93;;;1.83;;
13408;SDS011;6775;49.574;11.170;2022-09-30T09:29:48;4.47;;;2.50;;
13408;SDS011;6775;49.574;11.170;2022-09-30T09:32:23;2.30;;;2.10;;
13408;SDS011;6775;49.574;11.170;2022-09-30T09:34:54;2.60;;;2.00;;
13408;SDS011;6775;49.574;11.170;2022-09-30T09:37:26;2.60;;;2.10;;
13408;SDS011;6775;49.574;11.170;2022-09-30T09:40:15;2.43;;;2.00;;
13408;SDS011;6775;49.574;11.170;2022-09-30T09:43:03;2.50;;;2.30;;
13408;SDS011;6775;49.574;11.170;2022-09-30T09:45:41;2.83;;;2.50;;
13408;SDS011;6775;49.574;11.170;2022-09-30T09:48:17;3.00;;;2.53;;
13408;SDS011;6775;49.574;11.170;2022-09-30T09:50:47;3.57;;;2.60;;
13408;SDS011;6775;49.574;11.170;2022-09-30T09:53:41;2.63;;;2.17;;
13408;SDS011;6775;49.574;11.170;2022-09-30T09:56:13;2.60;;;2.40;;
13408;SDS011;6775;49.574;11.170;2022-09-30T09:59:05;2.20;;;1.93;;
13408;SDS011;6775;49.574;11.170;2022-09-30T10:01:37;2.60;;;2.40;;
13408;SDS011;6775;49.574;11.170;2022-09-30T10:04:17;3.17;;;2.47;;
13408;SDS011;6775;49.574;11.170;2022-09-30T10:06:48;2.23;;;2.03;;
13408;SDS011;6775;49.574;11.170;2022-09-30T10:09:22;2.50;;;2.30;;
13408;SDS011;6775;49.574;11.170;2022-09-30T10:14:56;3.10;;;2.00;;
13408;SDS011;6775;49.574;11.170;2022-09-30T10:17:27;3.90;;;2.33;;
13408;SDS011;6775;49.574;11.170;2022-09-30T10:19:57;3.50;;;2.63;;
13408;SDS011;6775;49.574;11.170;2022-09-30T10:22:30;3.03;;;2.50;;
13408;SDS011;6775;49.574;11.170;2022-09-30T10:25:08;2.53;;;2.30;;
13408;SDS011;6775;49.574;11.170;2022-09-30T10:27:46;2.23;;;1.93;;
13408;SDS011;6775;49.574;11.170;2022-09-30T10:30:34;3.33;;;2.13;;
13408;SDS011;6775;49.574;11.170;2022-09-30T10:33:17;2.27;;;1.63;;
13408;SDS011;6775;49.574;11.170;2022-09-30T10:35:49;4.03;;;2.07;;
13408;SDS011;6775;49.574;11.170;2022-09-30T10:38:20;2.43;;;1.80;;
13408;SDS011;6775;49.574;11.170;2022-09-30T10:40:50;3.00;;;1.57;;
13408;SDS011;6775;49.574;11.170;2022-09-30T10:43:20;1.67;;;1.50;;
13408;SDS011;6775;49.574;11.170;2022-09-30T10:45:52;2.33;;;2.10;;
13408;SDS011;6775;49.574;11.170;2022-09-30T10:48:40;1.80;;;1.70;;
13408;SDS011;6775;49.574;11.170;2022-09-30T10:51:20;2.27;;;1.70;;
13408;SDS011;6775;49.574;11.170;2022-09-30T10:53:52;1.47;;;1.37;;
13408;SDS011;6775;49.574;11.170;2022-09-30T10:56:32;2.20;;;1.90;;
13408;SDS011;6775;49.574;11.170;2022-09-30T10:59:03;1.70;;;1.60;;
13408;SDS011;6775;49.574;11.170;2022-09-30T11:01:35;2.77;;;1.90;;
13408;SDS011;6775;49.574;11.170;2022-09-30T11:04:09;2.10;;;1.50;;
13408;SDS011;6775;49.574;11.170;2022-09-30T11:06:45;1.97;;;1.40;;
13408;SDS011;6775;49.574;11.170;2022-09-30T11:09:16;1.60;;;1.50;;
13408;SDS011;6775;49.574;11.170;2022-09-30T11:12:01;2.23;;;1.57;;
13408;SDS011;6775;49.574;11.170;2022-09-30T11:14:38;1.60;;;1.50;;
13408;SDS011;6775;49.574;11.170;2022-09-30T11:17:17;2.27;;;1.80;;
13408;SDS011;6775;49.574;11.170;2022-09-30T11:19:56;3.83;;;2.23;;
13408;SDS011;6775;49.574;11.170;2022-09-30T11:22:36;3.13;;;2.20;;
13408;SDS011;6775;49.574;11.170;2022-09-30T11:25:11;1.93;;;1.30;;
13408;SDS011;6775;49.574;11.170;2022-09-30T11:27:48;5.03;;;2.67;;
13408;SDS011;6775;49.574;11.170;2022-09-30T11:30:34;3.87;;;2.20;;
13408;SDS011;6775;49.574;11.170;2022-09-30T11:33:14;2.50;;;2.00;;
13408;SDS011;6775;49.574;11.170;2022-09-30T11:35:59;1.60;;;1.50;;
13408;SDS011;6775;49.574;11.170;2022-09-30T11:38:44;2.37;;;1.50;;
13408;SDS011;6775;49.574;11.170;2022-09-30T11:41:29;1.83;;;1.33;;
13408;SDS011;6775;49.574;11.170;2022-09-30T11:44:03;2.27;;;1.70;;
13408;SDS011;6775;49.574;11.170;2022-09-30T11:46:51;2.53;;;1.77;;
13408;SDS011;6775;49.574;11.170;2022-09-30T11:49:45;1.50;;;1.40;;
13408;SDS011;6775;49.574;11.170;2022-09-30T11:52:24;1.80;;;1.50;;
13408;SDS011;6775;49.574;11.170;2022-09-30T11:55:02;1.50;;;1.40;;
13408;SDS011;6775;49.574;11.170;2022-09-30T11:57:49;1.60;;;1.50;;
13408;SDS011;6775;49.574;11.170;2022-09-30T12:00:21;1.80;;;1.70;;
13408;SDS011;6775;49.574;11.170;2022-09-30T12:02:50;2.60;;;1.60;;
13408;SDS011;6775;49.574;11.170;2022-09-30T12:05:21;1.90;;;1.50;;
13408;SDS011;6775;49.574;11.170;2022-09-30T12:07:53;2.33;;;1.40;;
13408;SDS011;6775;49.574;11.170;2022-09-30T12:10:25;1.67;;;1.53;;
13408;SDS011;6775;49.574;11.170;2022-09-30T12:13:02;2.33;;;1.80;;
13408;SDS011;6775;49.574;11.170;2022-09-30T12:15:32;2.03;;;1.60;;
13408;SDS011;6775;49.574;11.170;2022-09-30T12:18:02;2.40;;;1.57;;
13408;SDS011;6775;49.574;11.170;2022-09-30T12:20:38;2.93;;;2.20;;
13408;SDS011;6775;49.574;11.170;2022-09-30T12:23:13;1.83;;;1.50;;
13408;SDS011;6775;49.574;11.170;2022-09-30T12:25:46;1.97;;;1.40;;
13408;SDS011;6775;49.574;11.170;2022-09-30T12:28:23;1.67;;;1.37;;
13408;SDS011;6775;49.574;11.170;2022-09-30T12:31:18;2.47;;;2.27;;
13408;SDS011;6775;49.574;11.170;2022-09-30T12:34:05;1.97;;;1.50;;
13408;SDS011;6775;49.574;11.170;2022-09-30T12:36:49;2.00;;;1.50;;
13408;SDS011;6775;49.574;11.170;2022-09-30T12:39:36;1.50;;;1.40;;
13408;SDS011;6775;49.574;11.170;2022-09-30T12:45:23;1.63;;;1.53;;
13408;SDS011;6775;49.574;11.170;2022-09-30T12:48:04;1.40;;;1.30;;
13408;SDS011;6775;49.574;11.170;2022-09-30T12:50:44;1.30;;;1.20;;
13408;SDS011;6775;49.574;11.170;2022-09-30T12:53:17;2.43;;;1.50;;
13408;SDS011;6775;49.574;11.170;2022-09-30T12:55:47;2.20;;;1.70;;
13408;SDS011;6775;49.574;11.170;2022-09-30T12:58:18;1.63;;;1.33;;
13408;SDS011;6775;49.574;11.170;2022-09-30T13:01:00;2.30;;;1.73;;
13408;SDS011;6775;49.574;11.170;2022-09-30T13:03:42;1.97;;;1.73;;
13408;SDS011;6775;49.574;11.170;2022-09-30T13:06:19;1.80;;;1.70;;
13408;SDS011;6775;49.574;11.170;2022-09-30T13:11:45;1.80;;;1.53;;
13408;SDS011;6775;49.574;11.170;2022-09-30T13:14:29;1.87;;;1.60;;
13408;SDS011;6775;49.574;11.170;2022-09-30T13:16:59;3.87;;;2.43;;
13408;SDS011;6775;49.574;11.170;2022-09-30T13:19:45;2.47;;;2.13;;
13408;SDS011;6775;49.574;11.170;2022-09-30T13:25:20;41.07;;;12.93;;
13408;SDS011;6775;49.574;11.170;2022-09-30T13:27:48;43.17;;;14.27;;
13408;SDS011;6775;49.574;11.170;2022-09-30T13:30:32;23.73;;;8.87;;
13408;SDS011;6775;49.574;11.170;2022-09-30T13:35:56;4.67;;;3.13;;
13408;SDS011;6775;49.574;11.170;2022-09-30T13:38:35;4.53;;;2.53;;
13408;SDS011;6775;49.574;11.170;2022-09-30T13:41:15;3.73;;;2.47;;
13408;SDS011;6775;49.574;11.170;2022-09-30T13:43:55;2.83;;;2.30;;
13408;SDS011;6775;49.574;11.170;2022-09-30T13:46:28;3.30;;;2.20;;
13408;SDS011;6775;49.574;11.170;2022-09-30T13:49:02;2.37;;;2.00;;
13408;SDS011;6775;49.574;11.170;2022-09-30T13:51:38;2.20;;;1.80;;
13408;SDS011;6775;49.574;11.170;2022-09-30T13:54:09;2.70;;;1.97;;
13408;SDS011;6775;49.574;11.170;2022-09-30T13:56:43;2.60;;;2.20;;
13408;SDS011;6775;49.574;11.170;2022-09-30T14:02:25;3.40;;;2.47;;
13408;SDS011;6775;49.574;11.170;2022-09-30T14:05:16;2.00;;;1.83;;
13408;SDS011;6775;49.574;11.170;2022-09-30T14:08:02;2.93;;;2.50;;
13408;SDS011;6775;49.574;11.170;2022-09-30T14:10:59;2.37;;;2.17;;
13408;SDS011;6775;49.574;11.170;2022-09-30T14:13:42;2.50;;;2.17;;
13408;SDS011;6775;49.574;11.170;2022-09-30T14:16:23;2.93;;;2.50;;
13408;SDS011;6775;49.574;11.170;2022-09-30T14:19:15;2.97;;;2.60;;
13408;SDS011;6775;49.574;11.170;2022-09-30T14:21:57;2.60;;;2.37;;
13408;SDS011;6775;49.574;11.170;2022-09-30T14:24:29;2.77;;;1.97;;
13408;SDS011;6775;49.574;11.170;2022-09-30T14:27:08;2.47;;;2.17;;
13408;SDS011;6775;49.574;11.170;2022-09-30T14:30:05;2.80;;;2.20;;
13408;SDS011;6775;49.574;11.170;2022-09-30T14:32:42;2.50;;;2.10;;
13408;SDS011;6775;49.574;11.170;2022-09-30T14:35:13;2.93;;;2.63;;
13408;SDS011;6775;49.574;11.170;2022-09-30T14:37:44;3.57;;;3.13;;
13408;SDS011;6775;49.574;11.170;2022-09-30T14:40:17;4.47;;;2.67;;
13408;SDS011;6775;49.574;11.170;2022-09-30T14:42:47;3.07;;;2.53;;
13408;SDS011;6775;49.574;11.170;2022-09-30T14:45:18;2.67;;;2.13;;
13408;SDS011;6775;49.574;11.170;2022-09-30T14:47:52;3.40;;;2.40;;
13408;SDS011;6775;49.574;11.170;2022-09-30T14:50:25;2.10;;;1.90;;
13408;SDS011;6775;49.574;11.170;2022-09-30T14:52:56;2.53;;;2.13;;
13408;SDS011;6775;49.574;11.170;2022-09-30T14:55:29;2.33;;;2.13;;
13408;SDS011;6775;49.574;11.170;2022-09-30T14:58:13;1.73;;;1.60;;
13408;SDS011;6775;49.574;11.170;2022-09-30T15:00:49;2.37;;;1.90;;
13408;SDS011;6775;49.574;11.170;2022-09-30T15:03:25;3.00;;;2.50;;
13408;SDS011;6775;49.574;11.170;2022-09-30T15:05:54;1.93;;;1.73;;
13408;SDS011;6775;49.574;11.170;2022-09-30T15:08:23;2.50;;;2.13;;
13408;SDS011;6775;49.574;11.170;2022-09-30T15:10:51;3.20;;;1.80;;
13408;SDS011;6775;49.574;11.170;2022-09-30T15:13:22;2.27;;;2.07;;
13408;SDS011;6775;49.574;11.170;2022-09-30T15:15:54;1.80;;;1.70;;
13408;SDS011;6775;49.574;11.170;2022-09-30T15:18:26;2.17;;;1.97;;
13408;SDS011;6775;49.574;11.170;2022-09-30T15:20:57;2.10;;;1.80;;
13408;SDS011;6775;49.574;11.170;2022-09-30T15:23:34;1.73;;;1.50;;
13408;SDS011;6775;49.574;11.170;2022-09-30T15:26:03;1.50;;;1.27;;
13408;SDS011;6775;49.574;11.170;2022-09-30T15:28:32;2.93;;;1.63;;
13408;SDS011;6775;49.574;11.170;2022-09-30T15:31:03;1.63;;;1.50;;
13408;SDS011;6775;49.574;11.170;2022-09-30T15:33:33;1.40;;;1.30;;
13408;SDS011;6775;49.574;11.170;2022-09-30T15:36:02;1.40;;;1.20;;
13408;SDS011;6775;49.574;11.170;2022-09-30T15:38:33;1.63;;;1.40;;
13408;SDS011;6775;49.574;11.170;2022-09-30T15:41:03;1.20;;;1.10;;
13408;SDS011;6775;49.574;11.170;2022-09-30T15:43:34;1.70;;;1.60;;
13408;SDS011;6775;49.574;11.170;2022-09-30T15:46:16;3.17;;;1.57;;
13408;SDS011;6775;49.574;11.170;2022-09-30T15:48:54;1.47;;;1.37;;
13408;SDS011;6775;49.574;11.170;2022-09-30T15:51:25;1.80;;;1.43;;
13408;SDS011;6775;49.574;11.170;2022-09-30T15:53:56;1.87;;;1.40;;